Latest Weather Observations for Geraldton Airport

IDW60801

Issued at 9:13 am WST Monday 18 October 2021 (issued every 10 minutes, with the page automatically refreshed every 10 minutes)

About weather observations | Map of weather stations | Latest weather observations for WA | Other Formats
Station Details ID: 008315 Name: GERALDTON AIRPORT Lat: -28.80 Lon: 114.70 Height: 29.7 m
Data from the previous 72 hours. | See also: Recent months at Geraldton Airport
Date/Time
WST
Temp
°C
App
Temp
°C
Dew
Point
°C
Rel
Hum
%
Delta-T
°C
Wind Press
QNH
hPa
Press
MSL
hPa
Rain since
9am
mm
Dir  Spd
km/h
Gust
km/h
Spd
kts
Gust
kts
18/09:00am 20.4 18.0 9.9 51 5.6 NNE 13 22 7 12 1011.7 1011.7 0.0
18/08:30am 19.4 16.2 9.9 54 5.1 NNE 17 20 9 11 1011.6 1011.6 0.0
18/08:00am 17.3 13.6 10.0 62 3.9 NNE 20 24 11 13 1011.5 1011.5 0.0
18/07:30am 15.0 11.2 9.8 71 2.7 NNE 20 26 11 14 1011.5 1011.5 0.0
18/07:00am 13.3 9.4 9.4 77 2.0 NNE 20 28 11 15 1011.5 1011.5 0.0
18/06:30am 11.3 7.2 8.7 84 1.3 NNE 20 24 11 13 1011.2 1011.2 0.0
18/06:00am 9.9 5.6 7.8 87 1.0 NNE 20 24 11 13 1010.8 1010.8 0.0
18/05:30am 10.0 5.7 7.9 87 1.0 NNE 20 26 11 14 1010.4 1010.4 0.0
18/05:00am 9.6 5.2 7.5 87 1.0 NNE 20 24 11 13 1010.0 1010.0 0.0
18/04:30am 10.0 5.7 7.8 86 1.1 NNE 20 26 11 14 1009.6 1009.6 0.0
18/04:00am 9.4 5.0 7.5 88 0.9 NNE 20 24 11 13 1009.4 1009.4 0.0
18/03:30am 9.3 4.9 7.4 88 0.9 NNE 20 24 11 13 1009.3 1009.3 0.0
18/03:00am 9.5 5.3 7.4 87 1.0 NNE 19 22 10 12 1009.1 1009.1 0.0
18/02:30am 9.5 5.7 7.4 87 1.0 NNE 17 20 9 11 1009.1 1009.1 0.0
18/02:00am 9.8 6.0 7.6 86 1.1 NNE 17 20 9 11 1009.2 1009.2 0.0
18/01:30am 10.1 6.7 7.7 85 1.2 NNE 15 19 8 10 1009.3 1009.3 0.0
18/01:00am 10.6 7.0 8.2 85 1.2 NNE 17 19 9 10 1009.5 1009.5 0.0
18/12:30am 10.7 7.5 8.3 85 1.2 NNE 15 20 8 11 1009.6 1009.6 0.0
18/12:00am 11.3 7.8 8.7 84 1.3 NNE 17 19 9 10 1010.1 1010.1 0.0
 
Date/Time
WST
Temp
°C
App
Temp
°C
Dew
Point
°C
Rel
Hum
%
Delta-T
°C
Wind Press
QNH
hPa
Press
MSL
hPa
Rain since
9am
mm
Dir  Spd
km/h
Gust
km/h
Spd
kts
Gust
kts
17/11:30pm 11.0 8.1 8.2 83 1.4 NNE 13 17 7 9 1010.2 1010.2 0.0
17/11:00pm 11.2 8.4 8.4 83 1.4 NNE 13 15 7 8 1010.6 1010.6 0.0
17/10:30pm 11.1 8.9 8.0 81 1.5 NNE 9 11 5 6 1010.8 1010.8 0.0
17/10:00pm 11.2 9.0 7.7 79 1.7 NE 9 11 5 6 1011.0 1011.0 0.0
17/09:30pm 11.1 9.1 7.0 76 2.0 ENE 7 9 4 5 1011.1 1011.1 0.0
17/09:00pm 12.4 10.8 7.9 74 2.2 SE 6 9 3 5 1011.2 1011.2 0.0
17/08:30pm 14.1 12.2 8.9 71 2.6 SSW 9 9 5 5 1011.1 1011.1 0.0
17/08:00pm 15.1 13.2 9.2 68 3.0 SSW 9 11 5 6 1010.9 1010.9 0.0
17/07:30pm 15.4 13.2 9.3 67 3.1 SW 11 11 6 6 1010.9 1010.9 0.0
17/07:00pm 16.6 14.8 9.5 63 3.7 SW 9 11 5 6 1010.6 1010.6 0.0
17/06:30pm 18.0 15.6 9.9 59 4.3 SW 13 15 7 8 1010.5 1010.5 0.0
17/06:00pm 19.3 16.4 9.8 54 5.1 SW 15 20 8 11 1010.6 1010.6 0.0
17/05:30pm 20.4 17.1 9.6 50 5.8 SW 17 22 9 12 1010.3 1010.3 0.0
17/05:00pm 21.1 18.0 9.0 46 6.4 WSW 15 22 8 12 1010.1 1010.1 0.0
17/04:30pm 21.8 17.8 8.3 42 7.1 W 19 30 10 16 1010.1 1010.1 0.0
17/04:00pm 21.8 18.6 8.3 42 7.1 W 15 24 8 13 1009.9 1009.9 0.0
17/03:30pm 21.6 17.8 9.2 45 6.6 W 19 30 10 16 1010.2 1010.2 0.0
17/03:00pm 21.1 17.4 10.3 50 5.9 SW 20 32 11 17 1010.3 1010.3 0.0
17/02:30pm 22.0 17.8 9.9 46 6.6 SW 22 33 12 18 1010.3 1010.3 0.0
17/02:00pm 21.8 16.9 10.0 47 6.4 WSW 26 37 14 20 1010.6 1010.6 0.0
17/01:30pm 21.8 17.4 10.3 48 6.3 WSW 24 39 13 21 1010.9 1010.9 0.0
17/01:00pm 21.5 16.8 10.6 50 6.0 WSW 26 35 14 19 1011.3 1011.3 0.0
17/12:30pm 22.0 17.5 10.2 47 6.4 WSW 24 39 13 21 1011.5 1011.5 0.0
17/12:00pm 22.0 16.7 9.9 46 6.6 WSW 28 35 15 19 1011.6 1011.6 0.0
17/11:30am 23.0 18.6 9.0 41 7.5 W 22 37 12 20 1011.6 1011.6 0.0
17/11:00am 22.6 18.9 9.4 43 7.1 WNW 19 30 10 16 1011.8 1011.8 0.0
17/10:30am 21.4 18.0 11.1 52 5.7 WSW 20 26 11 14 1012.0 1012.0 0.0
17/10:00am 21.2 18.1 10.4 50 5.9 W 17 24 9 13 1012.1 1012.1 0.0
17/09:30am 20.1 17.2 11.1 56 4.9 SW 17 22 9 12 1012.3 1012.3 0.0
17/09:00am 19.6 17.1 11.1 58 4.7 WSW 15 20 8 11 1012.3 1012.3 0.0
17/08:30am 19.9 18.6 11.1 57 4.8 NNW 9 13 5 7 1012.0 1012.0 0.0
17/08:00am 17.9 15.8 11.0 64 3.7 NNE 13 19 7 10 1012.0 1012.0 0.0
17/07:30am 16.4 13.0 10.5 68 3.1 NNE 19 22 10 12 1012.0 1012.0 0.0
17/07:00am 14.5 11.1 10.5 77 2.1 NNE 19 26 10 14 1011.9 1011.9 0.0
17/06:30am 12.0 8.1 9.6 85 1.2 NNE 20 28 11 15 1011.8 1011.8 0.0
17/06:00am 11.4 7.7 9.5 88 1.0 NNE 19 24 10 13 1011.4 1011.4 0.0
17/05:30am 11.3 8.0 9.4 88 1.0 NNE 17 20 9 11 1011.1 1011.1 0.0
17/05:00am 10.8 7.4 9.1 89 0.8 NE 17 19 9 10 1010.8 1010.8 0.0
17/04:30am 11.0 8.0 9.3 89 0.9 NNE 15 20 8 11 1010.5 1010.5 0.0
17/04:00am 10.8 8.1 9.1 89 0.8 NE 13 17 7 9 1010.4 1010.4 0.0
17/03:30am 11.0 8.7 9.1 88 0.9 NNE 11 15 6 8 1010.4 1010.4 0.0
17/03:00am 11.4 8.5 9.5 88 1.0 NNE 15 19 8 10 1010.7 1010.7 0.0
17/02:30am 11.4 8.1 9.7 89 0.9 NNE 17 19 9 10 1010.7 1010.7 0.0
17/02:00am 11.1 8.5 9.4 89 0.9 NNE 13 15 7 8 1010.7 1010.7 0.0
17/01:30am 11.1 8.9 9.2 88 0.9 NNE 11 13 6 7 1011.3 1011.3 0.0
17/01:00am 11.6 9.1 9.7 88 1.0 NNE 13 17 7 9 1011.5 1011.5 0.0
17/12:30am 11.7 9.2 9.6 87 1.1 NNE 13 15 7 8 1011.6 1011.6 0.0
17/12:00am 12.2 9.8 9.9 86 1.2 NNE 13 13 7 7 1011.8 1011.8 0.0
 
Date/Time
WST
Temp
°C
App
Temp
°C
Dew
Point
°C
Rel
Hum
%
Delta-T
°C
Wind Press
QNH
hPa
Press
MSL
hPa
Rain since
9am
mm
Dir  Spd
km/h
Gust
km/h
Spd
kts
Gust
kts
16/11:30pm 12.3 10.2 9.9 85 1.2 NNE 11 13 6 7 1011.9 1011.9 0.0
16/11:00pm 12.0 10.2 9.4 84 1.3 NNE 9 11 5 6 1011.9 1011.9 0.0
16/10:30pm 13.1 11.8 9.9 81 1.6 NNE 7 9 4 5 1012.0 1012.0 0.0
16/10:00pm 13.8 12.6 10.4 80 1.8 NNE 7 9 4 5 1012.3 1012.3 0.0
16/09:30pm 14.2 13.7 10.8 80 1.8 NNE 4 7 2 4 1012.2 1012.2 0.0
16/09:00pm 13.5 13.6 10.1 80 1.8 CALM 0 0 0 0 1012.1 1012.1 0.0
16/08:30pm 15.1 14.2 10.5 74 2.4 S 6 7 3 4 1012.2 1012.2 0.0
16/08:00pm 16.2 15.5 11.4 73 2.6 SSW 6 7 3 4 1012.3 1012.3 0.0
16/07:30pm 16.7 15.9 11.6 72 2.8 WSW 7 9 4 5 1012.3 1012.3 0.0
16/07:00pm 17.1 15.1 11.6 70 3.0 SW 13 15 7 8 1012.0 1012.0 0.0
16/06:30pm 18.0 16.0 11.6 66 3.5 SW 13 17 7 9 1011.9 1011.9 0.0
16/06:00pm 19.1 16.4 11.7 62 4.1 WSW 17 24 9 13 1011.7 1011.7 0.0
16/05:30pm 20.1 16.8 11.6 58 4.7 SW 20 28 11 15 1011.7 1011.7 0.0
16/05:00pm 21.1 17.9 12.0 56 5.1 WSW 20 28 11 15 1011.6 1011.6 0.0
16/04:30pm 20.7 16.2 11.3 55 5.2 WSW 26 33 14 18 1011.7 1011.7 0.0
16/04:00pm 21.3 17.4 12.2 56 5.1 WSW 24 33 13 18 1011.7 1011.7 0.0
16/03:30pm 21.1 17.3 12.5 58 4.9 SW 24 33 13 18 1011.6 1011.6 0.0
16/03:00pm 20.5 16.4 12.7 61 4.4 WSW 26 35 14 19 1011.6 1011.6 0.0
16/02:30pm 21.1 17.3 12.5 58 4.9 WSW 24 39 13 21 1011.6 1011.6 0.0
16/02:00pm 21.7 18.1 13.1 58 4.9 WSW 24 33 13 18 1011.4 1011.4 0.0
16/01:30pm 22.4 19.0 12.6 54 5.6 WSW 22 32 12 17 1010.9 1010.9 0.0
16/01:00pm 22.6 19.6 13.7 57 5.2 SW 22 32 12 17 1010.7 1010.7 0.0
16/12:30pm 21.7 18.9 13.1 58 4.9 SW 20 28 11 15 1010.8 1010.8 0.0
16/12:00pm 22.6 19.3 11.7 50 6.1 SW 20 33 11 18 1011.0 1011.0 0.0
16/11:30am 21.6 18.4 13.2 59 4.8 SW 22 32 12 17 1011.2 1011.2 0.0
16/11:00am 21.2 18.0 13.1 60 4.6 WSW 22 32 12 17 1011.9 1011.9 0.0
16/10:30am 21.0 18.2 12.7 59 4.7 WSW 19 30 10 16 1011.9 1011.9 0.0
16/10:00am 21.1 17.7 12.5 58 4.9 WSW 22 33 12 18 1012.0 1012.0 0.0
16/09:30am 21.3 17.9 12.4 57 5.0 SW 22 30 12 16 1011.8 1011.8 0.0
16/09:00am 20.5 17.3 13.2 63 4.2 SW 22 32 12 17 1011.6 1011.6 0.0
16/08:30am 20.8 18.2 13.7 64 4.1 SW 20 28 11 15 1011.4 1011.4 0.0
16/08:00am 19.7 17.1 13.9 69 3.3 WSW 20 30 11 16 1011.1 1011.1 0.0
16/07:30am 18.8 16.2 13.9 73 2.8 WSW 20 30 11 16 1010.9 1010.9 0.0
16/07:00am 18.6 16.4 14.5 77 2.4 WSW 19 22 10 12 1010.5 1010.5 0.0
16/06:30am 18.0 16.8 15.1 83 1.7 WSW 15 20 8 11 1009.8 1009.8 0.0
16/06:00am 17.3 16.0 14.9 86 1.4 WSW 15 20 8 11 1009.4 1009.4 0.0
16/05:58am 17.3 16.0 14.9 86 1.4 WSW 15 20 8 11 1009.4 1009.4 0.0
16/05:34am 16.9 16.4 14.9 88 1.2 WSW 11 17 6 9 1008.9 1008.9 0.0
16/05:30am 17.0 16.5 15.0 88 1.2 WSW 11 17 6 9 1008.9 1008.9 0.0
16/05:00am 16.9 16.0 14.9 88 1.2 WSW 13 17 7 9 1008.5 1008.4 0.0
16/04:30am 16.9 16.4 15.8 93 0.6 WSW 13 17 7 9 1008.1 1008.0 0.0
16/04:29am 16.9 16.4 15.9 94 0.6 WSW 13 17 7 9 1008.1 1008.0 0.0
16/04:00am 13.2 12.5 12.1 93 0.6 W 7 9 4 5 1007.8 1007.7 0.0
16/03:30am 13.1 12.4 12.0 93 0.6 W 7 7 4 4 1007.6 1007.5 0.0
16/03:03am 13.0 11.9 11.9 93 0.6 N 9 11 5 6 1007.5 1007.4 0.0
16/03:00am 13.0 11.9 11.9 93 0.6 N 9 11 5 6 1007.6 1007.5 0.0
16/02:39am 14.1 13.6 12.8 92 0.7 WSW 7 9 4 5 1007.6 1007.5 0.0
16/02:30am 14.7 14.5 13.6 93 0.6 SW 7 9 4 5 1007.6 1007.5 0.0
16/02:19am 14.3 14.5 13.2 93 0.6 WSW 4 9 2 5 1007.5 1007.4 0.0
16/02:00am 13.7 13.1 12.4 92 0.7 W 7 9 4 5 1007.5 1007.4 0.0
16/01:30am 13.5 14.2 12.1 91 0.8 CALM 0 6 0 3 1007.8 1007.7 0.0
16/01:00am 13.1 13.2 11.5 90 0.9 ESE 2 11 1 6 1008.0 1007.9 0.0
16/12:30am 13.9 14.6 12.3 90 0.9 CALM 0 6 0 3 1008.0 1007.9 0.0
16/12:00am 15.0 14.7 13.4 90 0.9 NNW 7 9 4 5 1008.4 1008.3 0.0
 
Date/Time
WST
Temp
°C
App
Temp
°C
Dew
Point
°C
Rel
Hum
%
Delta-T
°C
Wind Press
QNH
hPa
Press
MSL
hPa
Rain since
9am
mm
Dir  Spd
km/h
Gust
km/h
Spd
kts
Gust
kts
15/11:30pm 15.7 15.3 14.2 91 0.9 NNE 9 11 5 6 1008.5 1008.4 0.0
15/11:00pm 14.5 14.1 12.9 90 0.9 N 7 11 4 6 1008.6 1008.5 0.0
15/10:30pm 15.3 15.2 13.8 91 0.8 N 7 15 4 8 1008.8 1008.8 0.0
15/10:00pm 15.7 14.8 13.7 88 1.1 WNW 11 13 6 7 1008.4 1008.3 0.0
15/09:30pm 16.2 15.5 14.4 89 1.0 NW 11 13 6 7 1008.4 1008.3 0.0
15/09:00pm 16.0 15.1 13.7 86 1.3 NW 11 15 6 8 1008.4 1008.3 0.0
15/08:30pm 17.5 17.1 14.2 81 1.9 WSW 9 11 5 6 1007.9 1007.8 0.0
15/08:00pm 18.0 17.3 14.3 79 2.1 W 11 11 6 6 1007.8 1007.7 0.0
15/07:30pm 18.9 18.9 15.2 79 2.2 W 9 13 5 7 1007.6 1007.5 0.0
15/07:00pm 19.6 19.0 15.7 78 2.3 W 13 17 7 9 1007.4 1007.3 0.0
15/06:30pm 21.1 19.5 15.9 72 3.1 W 19 24 10 13 1007.1 1007.0 0.0
15/06:00pm 22.9 19.7 11.9 50 6.2 W 20 28 11 15 1006.8 1006.7 0.0
15/05:30pm 25.4 21.9 7.1 31 9.6 W 15 20 8 11 1006.4 1006.3 0.0
15/05:00pm 26.2 21.9 5.2 26 10.8 WNW 17 24 9 13 1006.3 1006.2 0.0
15/04:30pm 26.6 22.6 6.6 28 10.5 W 17 22 9 12 1006.2 1006.1 0.0
15/04:00pm 27.4 22.9 6.2 26 11.1 SW 19 28 10 15 1006.0 1005.9 0.0
15/03:30pm 27.6 22.7 5.2 24 11.5 WSW 20 28 11 15 1005.7 1005.6 0.0
15/03:00pm 27.3 22.5 7.2 28 10.7 SW 22 30 12 16 1005.5 1005.4 0.0
15/02:30pm 27.1 22.6 8.5 31 10.1 SW 22 30 12 16 1005.5 1005.4 0.0
15/02:00pm 28.8 24.0 5.6 23 12.2 SW 20 28 11 15 1005.1 1005.0 0.0
15/01:30pm 29.1 23.8 5.2 22 12.4 SW 22 28 12 15 1005.2 1005.1 0.0
15/01:00pm 28.4 23.4 6.5 25 11.6 WSW 22 28 12 15 1005.4 1005.3 0.0
15/12:30pm 28.8 23.6 5.6 23 12.1 WSW 22 30 12 16 1005.5 1005.4 0.0
15/12:00pm 30.9 26.2 6.0 21 13.3 WSW 20 26 11 14 1005.5 1005.4 0.0
15/11:30am 35.9 30.6 -0.5 10 17.9 NE 17 28 9 15 1005.6 1005.5 0.0
15/11:00am 35.2 30.0 0.3 11 17.4 ENE 17 24 9 13 1006.1 1006.0 0.0
15/10:30am 33.0 27.9 0.9 13 15.9 NE 17 24 9 13 1007.0 1006.9 0.0
15/10:00am 31.9 26.7 0.1 13 15.5 NNE 17 26 9 14 1007.4 1007.3 0.0
15/09:30am 31.4 26.1 -0.3 13 15.2 N 17 24 9 13 1007.8 1007.7 0.0

Other formats

Comma delimited format used in spreadsheet applications
http://www.bom.gov.au/fwo/IDW60801/IDW60801.94403.axf

JavaScript Object Notation format (JSON) in row-major order
http://www.bom.gov.au/fwo/IDW60801/IDW60801.94403.json

Data quality

Most of these data are generated automatically and are frequently updated. Quality checks on data are not normally performed. It is possible for incorrect values to appear. Refer to information at About Latest Weather Observations and please check the disclaimer before using these data.